Time;durP1;ratioP1;P1;durP2;ratioP2;P2;SDS_P1;SDS_P2;PMS_P1;PMS_P2;Temp;Humidity;BMP_temperature;BMP_pressure;BME280_temperature;BME280_humidity;BME280_pressure;Samples;Min_cycle;Max_cycle;Signal;HPM_P1;HPM_P2
2023/09/12 00:02:35;;;;;;;;;;;;;;;;;;;;;
2023/09/12 00:06:18;;;;;;;28.00;17.77;;;19.00;99.90;;;;;;6008441;23;20666;-83
2023/09/12 00:09:59;;;;;;;26.07;17.50;;;19.10;99.90;;;;;;5834820;24;20171;-81
2023/09/12 00:12:58;;;;;;;;;;;;;;;;;;;;;
2023/09/12 00:16:40;;;;;;;25.67;18.13;;;19.10;99.90;;;;;;5909258;24;20204;-82
2023/09/12 00:19:57;;;;;;;33.93;19.20;;;19.00;99.90;;;;;;5887008;24;20426;-82
2023/09/12 00:39:30;;;;;;;;;;;;;;;;;;;;;
2023/09/12 00:42:58;;;;;;;;;;;;;;;;;;;;;
2023/09/12 00:46:20;;;;;;;27.00;19.13;;;18.70;99.90;;;;;;5900628;24;20256;-82
2023/09/12 00:53:28;;;;;;;29.80;19.67;;;18.60;99.90;;;;;;4554225;27;16292034;-83
2023/09/12 00:56:50;;;;;;;27.37;19.90;;;18.50;99.90;;;;;;5103055;28;20205;-85
2023/09/12 01:00:10;;;;;;;30.63;20.00;;;18.50;99.90;;;;;;5107040;28;20177;-82
2023/09/12 01:03:00;;;;;;;28.63;19.20;;;18.50;99.90;;;;;;5046052;28;20719;-84
2023/09/12 01:09:12;;;;;;;28.37;19.57;;;18.40;99.90;;;;;;4999720;28;20196;-83
2023/09/12 01:12:19;;;;;;;26.77;19.10;;;18.40;99.90;;;;;;4985062;28;20231;-83
2023/09/12 01:15:21;;;;;;;32.33;20.57;;;18.30;99.90;;;;;;4997830;28;20257;-80
2023/09/12 01:17:51;;;;;;;29.87;19.67;;;18.30;99.90;;;;;;4972063;28;20678;-79
2023/09/12 01:21:20;;;;;;;30.60;20.53;;;18.30;99.90;;;;;;4963334;28;20238;-82
2023/09/12 01:24:59;;;;;;;30.37;20.33;;;18.40;99.90;;;;;;4925890;29;20282;-81
2023/09/12 01:27:45;;;;;;;30.67;19.73;;;18.20;99.90;;;;;;4928124;29;20329;-81
2023/09/12 01:30:34;;;;;;;30.50;20.10;;;18.20;99.90;;;;;;4910548;29;20207;-81
2023/09/12 01:33:28;;;;;;;28.70;19.53;;;18.20;99.90;;;;;;4928519;29;20207;-81
2023/09/12 01:36:16;;;;;;;29.90;20.27;;;18.20;99.90;;;;;;4928112;29;20706;-82
2023/09/12 01:39:25;;;;;;;27.63;19.67;;;18.10;99.90;;;;;;4945940;28;20296;-82
2023/09/12 01:42:37;;;;;;;34.00;20.30;;;18.10;99.90;;;;;;5021982;28;20684;-81
2023/09/12 01:45:28;;;;;;;27.57;20.30;;;18.10;99.90;;;;;;5001312;28;20224;-81
2023/09/12 01:48:33;;;;;;;28.90;19.77;;;18.00;99.90;;;;;;5024917;28;20365;-77
2023/09/12 01:51:10;;;;;;;28.37;19.97;;;18.10;99.90;;;;;;5024360;28;20242;-79
2023/09/12 01:54:16;;;;;;;28.90;19.80;;;18.10;99.90;;;;;;5003138;28;20265;-78
2023/09/12 01:57:15;;;;;;;27.93;19.80;;;18.10;99.90;;;;;;5001896;28;20227;-79
2023/09/12 02:00:09;;;;;;;30.67;20.00;;;18.10;99.90;;;;;;4992788;28;20199;-79
2023/09/12 02:03:09;;;;;;;27.53;19.73;;;18.10;99.90;;;;;;5080748;28;20251;-82
2023/09/12 02:06:27;;;;;;;33.23;20.27;;;18.10;99.90;;;;;;5069300;28;20210;-81
2023/09/12 02:09:32;;;;;;;30.70;20.70;;;18.00;99.90;;;;;;4999027;28;20293;-82
2023/09/12 02:12:17;;;;;;;;;;;;;;;;;;;;;
2023/09/12 02:15:34;;;;;;;29.43;19.97;;;17.90;99.90;;;;;;4867397;29;20769;-79
2023/09/12 02:18:26;;;;;;;33.17;21.27;;;17.90;99.90;;;;;;4870061;29;20268;-82
2023/09/12 02:25:07;;;;;;;;;;;;;;;;;;;;;
2023/09/12 02:28:13;;;;;;;29.13;20.80;;;17.90;99.90;;;;;;4799880;29;20315;-79
2023/09/12 02:31:02;;;;;;;28.73;20.33;;;17.90;99.90;;;;;;4715393;30;20206;-82
2023/09/12 02:33:32;;;;;;;32.23;21.43;;;17.90;99.90;;;;;;4714521;30;20221;-81
2023/09/12 02:36:11;;;;;;;29.47;19.97;;;17.80;99.90;;;;;;4715042;30;20218;-81
2023/09/12 02:39:04;;;;;;;28.80;21.03;;;17.80;99.90;;;;;;4752425;29;20649;-81
2023/09/12 02:41:58;;;;;;;30.03;21.90;;;17.70;99.90;;;;;;4785215;29;20307;-81
2023/09/12 02:45:06;;;;;;;33.77;21.07;;;17.70;99.90;;;;;;4805652;29;20330;-81
2023/09/12 02:48:20;;;;;;;29.13;20.50;;;17.70;99.90;;;;;;4818291;29;21074;-81
2023/09/12 02:51:18;;;;;;;29.07;20.80;;;17.70;99.90;;;;;;4807507;29;20270;-79
2023/09/12 02:54:07;;;;;;;29.70;21.17;;;17.60;99.90;;;;;;4816845;29;20241;-79
2023/09/12 02:57:01;;;;;;;32.23;21.77;;;17.60;99.90;;;;;;4819272;29;20211;-79
2023/09/12 02:59:48;;;;;;;32.90;22.27;;;17.60;99.90;;;;;;4864081;29;20208;-82
2023/09/12 03:02:56;;;;;;;33.20;22.10;;;17.50;99.90;;;;;;4934634;29;20198;-82
2023/09/12 03:05:55;;;;;;;31.70;21.93;;;17.60;99.90;;;;;;4932570;28;20309;-82
2023/09/12 03:08:41;;;;;;;30.97;20.37;;;17.50;99.90;;;;;;5036009;28;20289;-82
2023/09/12 03:11:17;;;;;;;29.43;21.27;;;17.50;99.90;;;;;;5036463;28;20214;-81
2023/09/12 03:13:56;;;;;;;28.17;20.37;;;17.40;99.90;;;;;;5047256;28;20332;-81
2023/09/12 03:16:52;;;;;;;31.60;21.13;;;17.40;99.90;;;;;;5031343;28;20648;-82
2023/09/12 03:19:31;;;;;;;30.50;21.23;;;17.30;99.90;;;;;;5033671;28;20205;-81
2023/09/12 03:22:20;;;;;;;33.43;22.33;;;17.20;99.90;;;;;;5045594;28;20222;-80
2023/09/12 03:25:06;;;;;;;29.07;20.90;;;17.40;99.90;;;;;;5051232;28;20245;-82
2023/09/12 03:27:52;;;;;;;30.77;21.13;;;17.30;99.90;;;;;;5051086;28;20276;-81
2023/09/12 03:30:29;;;;;;;40.93;22.87;;;17.30;99.90;;;;;;5034587;28;20223;-81
2023/09/12 03:33:25;;;;;;;30.03;21.10;;;17.40;99.90;;;;;;5049337;28;20213;-80
2023/09/12 03:36:00;;;;;;;30.60;21.10;;;17.20;99.90;;;;;;5051663;28;20729;-81
2023/09/12 03:38:36;;;;;;;30.27;21.83;;;17.20;99.90;;;;;;5034162;28;20195;-81
2023/09/12 03:41:13;;;;;;;33.50;22.13;;;17.30;99.90;;;;;;5049211;28;20623;-81
2023/09/12 03:43:47;;;;;;;32.73;22.17;;;17.20;99.90;;;;;;5048676;28;20214;-81
2023/09/12 03:46:36;;;;;;;32.07;22.23;;;17.10;99.90;;;;;;5036906;28;20207;-82
2023/09/12 03:49:12;;;;;;;32.90;22.33;;;17.10;99.90;;;;;;5050476;28;20607;-82
2023/09/12 03:51:40;;;;;;;32.33;21.77;;;17.10;99.90;;;;;;5049646;28;20222;-81
2023/09/12 03:54:30;;;;;;;32.87;22.27;;;17.10;99.90;;;;;;5036191;28;20201;-81
2023/09/12 03:57:23;;;;;;;31.00;22.10;;;17.00;99.90;;;;;;5049524;28;20673;-82
2023/09/12 03:59:54;;;;;;;30.63;21.30;;;17.10;99.90;;;;;;5051676;28;20269;-81
2023/09/12 04:02:49;;;;;;;30.63;21.80;;;17.00;99.90;;;;;;5034953;28;20222;-81
2023/09/12 04:05:50;;;;;;;31.57;21.43;;;17.10;99.90;;;;;;5050792;28;20651;-82
2023/09/12 04:08:33;;;;;;;32.97;21.63;;;17.00;99.90;;;;;;4989464;28;20203;-78
2023/09/12 04:11:22;;;;;;;31.07;22.13;;;17.00;99.90;;;;;;4992235;28;20192;-78
2023/09/12 04:14:19;;;;;;;31.27;20.70;;;17.00;99.90;;;;;;5007132;28;20231;-81
2023/09/12 04:16:53;;;;;;;29.60;21.03;;;16.90;99.90;;;;;;5009636;28;20759;-81
2023/09/12 04:19:48;;;;;;;28.90;20.50;;;17.00;99.90;;;;;;5003107;28;20199;-81
2023/09/12 04:22:35;;;;;;;;;;;;;;;;;;;;;
2023/09/12 04:25:11;;;;;;;35.07;22.00;;;17.00;99.90;;;;;;5005721;28;20714;-82
2023/09/12 04:28:10;;;;;;;30.50;20.57;;;16.90;99.90;;;;;;5008261;28;20204;-82
2023/09/12 04:31:22;;;;;;;30.87;21.17;;;16.90;99.90;;;;;;4917083;28;20351;-84
2023/09/12 04:33:55;;;;;;;30.77;21.57;;;16.80;99.90;;;;;;4934276;29;20252;-81
2023/09/12 04:36:29;;;;;;;31.80;21.47;;;16.90;99.90;;;;;;4934827;29;20214;-80
2023/09/12 04:39:01;;;;;;;29.33;21.07;;;16.90;99.90;;;;;;4993726;28;20204;-81
2023/09/12 04:41:31;;;;;;;30.40;20.90;;;17.00;99.90;;;;;;4992984;28;20192;-81
2023/09/12 04:44:02;;;;;;;29.17;20.93;;;17.00;99.90;;;;;;4993435;28;20294;-82
2023/09/12 04:46:31;;;;;;;30.67;21.57;;;16.90;99.90;;;;;;5009431;28;20295;-82
2023/09/12 04:49:03;;;;;;;29.43;21.13;;;17.20;99.90;;;;;;4993160;28;20272;-81
2023/09/12 04:51:37;;;;;;;30.03;21.30;;;17.20;99.90;;;;;;5008055;28;20310;-79
2023/09/12 04:54:07;;;;;;;34.47;22.90;;;17.30;99.90;;;;;;5011097;28;20709;-82
2023/09/12 04:56:38;;;;;;;33.67;22.87;;;17.30;99.90;;;;;;5013181;28;20211;-82
2023/09/12 04:59:14;;;;;;;30.37;21.50;;;17.40;99.90;;;;;;4996780;28;20207;-83
2023/09/12 05:01:49;;;;;;;34.70;22.97;;;17.40;99.90;;;;;;5056159;28;20225;-84
2023/09/12 05:04:21;;;;;;;34.17;22.07;;;17.50;99.90;;;;;;5069836;28;20190;-83
2023/09/12 05:06:51;;;;;;;36.17;23.97;;;17.60;99.90;;;;;;5053796;28;20677;-81
2023/09/12 05:09:21;;;;;;;38.87;23.13;;;17.70;99.90;;;;;;5070386;28;20194;-79
2023/09/12 05:11:55;;;;;;;30.70;22.87;;;17.70;99.90;;;;;;5070488;28;20236;-80
2023/09/12 05:14:28;;;;;;;32.53;22.17;;;17.80;99.90;;;;;;5069783;28;20178;-79
2023/09/12 05:16:58;;;;;;;34.80;22.67;;;17.90;99.90;;;;;;5053634;28;20248;-81
2023/09/12 05:19:27;;;;;;;30.47;22.43;;;17.90;99.90;;;;;;5069919;28;20230;-79
2023/09/12 05:21:56;;;;;;;31.10;22.60;;;18.00;99.90;;;;;;5053323;28;20214;-81
2023/09/12 05:24:24;;;;;;;50.97;25.70;;;18.00;99.90;;;;;;5070896;28;20182;-82
2023/09/12 05:26:59;;;;;;;35.20;23.33;;;18.10;99.90;;;;;;5054329;28;20259;-81
2023/09/12 05:29:32;;;;;;;33.40;23.47;;;18.20;99.90;;;;;;5071359;28;20197;-81
2023/09/12 05:32:04;;;;;;;30.30;22.47;;;18.20;99.90;;;;;;5070371;28;20217;-81
2023/09/12 05:34:32;;;;;;;30.70;22.70;;;18.20;99.90;;;;;;5070127;28;20209;-82
2023/09/12 05:37:05;;;;;;;30.67;21.60;;;18.40;99.90;;;;;;5071055;28;20621;-82
2023/09/12 05:39:38;;;;;;;30.70;21.70;;;18.40;99.90;;;;;;5057213;28;20547;-81
2023/09/12 05:42:14;;;;;;;32.50;22.57;;;18.40;99.90;;;;;;5075122;28;20216;-81
2023/09/12 05:44:49;;;;;;;44.57;24.03;;;18.50;99.90;;;;;;5057801;28;20202;-79
2023/09/12 05:47:17;;;;;;;34.73;22.23;;;18.40;99.90;;;;;;5073604;28;20224;-80
2023/09/12 05:49:47;;;;;;;34.67;21.77;;;18.60;99.90;;;;;;5073605;28;20194;-80
2023/09/12 05:52:18;;;;;;;34.97;22.13;;;18.70;99.90;;;;;;5077038;28;20210;-79
2023/09/12 05:54:46;;;;;;;32.07;21.70;;;18.80;99.90;;;;;;5077007;28;20194;-80
2023/09/12 05:57:17;;;;;;;45.83;23.50;;;18.90;99.90;;;;;;5060621;28;20193;-80
2023/09/12 05:59:47;;;;;;;38.67;23.40;;;18.90;99.90;;;;;;5076837;28;20208;-83
2023/09/12 06:02:21;;;;;;;34.67;21.87;;;18.80;99.90;;;;;;5060651;28;20292;-82
2023/09/12 06:04:53;;;;;;;30.60;21.73;;;19.00;99.90;;;;;;5076971;28;20192;-81
2023/09/12 06:07:22;;;;;;;30.00;21.37;;;19.00;99.90;;;;;;5059658;28;20217;-81
2023/09/12 06:10:01;;;;;;;29.77;21.07;;;19.00;99.90;;;;;;5094528;28;20178;-80
2023/09/12 06:12:29;;;;;;;49.47;23.90;;;19.10;99.90;;;;;;5094390;28;20271;-79
2023/09/12 06:14:57;;;;;;;31.60;21.63;;;19.20;99.90;;;;;;5059885;28;20194;-80
2023/09/12 06:17:28;;;;;;;30.47;20.67;;;19.20;99.90;;;;;;5075756;28;20288;-76
2023/09/12 06:19:56;;;;;;;31.33;20.60;;;19.30;99.90;;;;;;5059155;28;20564;-79
2023/09/12 06:22:25;;;;;;;33.20;22.00;;;19.40;99.90;;;;;;5092722;28;20213;-79
2023/09/12 06:25:00;;;;;;;28.93;21.07;;;19.60;99.90;;;;;;5093995;28;20178;-82
2023/09/12 06:27:30;;;;;;;30.33;20.83;;;19.70;99.90;;;;;;5076098;28;20193;-82
2023/09/12 06:30:01;;;;;;;30.27;21.63;;;19.70;99.90;;;;;;5076048;28;20190;-80
2023/09/12 06:32:35;;;;;;;30.20;21.13;;;20.00;99.90;;;;;;5059237;28;20217;-80
2023/09/12 15:32:22;;;;;;;16.42;11.90;;;29.50;77.50;;;;;;5032240;23;20238;-80
2023/09/12 15:34:51;;;;;;;15.18;11.90;;;29.40;77.50;;;;;;4898661;29;20251;-77
2023/09/12 15:37:21;;;;;;;15.00;12.18;;;29.40;78.10;;;;;;4895977;29;20220;-79
2023/09/12 15:39:50;;;;;;;17.13;12.10;;;29.30;77.90;;;;;;4897206;29;20280;-78
2023/09/12 15:42:20;;;;;;;17.73;12.55;;;29.30;79.00;;;;;;4897001;29;20212;-79
2023/09/12 15:45:05;;;;;;;16.88;12.68;;;29.20;79.10;;;;;;4896517;29;20276;-79
2023/09/12 15:47:42;;;;;;;15.82;12.48;;;29.00;79.10;;;;;;4896733;29;20259;-81
2023/09/12 15:51:05;;;;;;;15.10;12.18;;;29.00;79.30;;;;;;4879601;29;20232;-80
2023/09/12 15:53:38;;;;;;;17.98;12.98;;;28.90;80.10;;;;;;4815001;29;20243;-78
2023/09/12 15:56:10;;;;;;;20.88;13.02;;;28.90;80.60;;;;;;4820376;29;20361;-81
2023/09/12 15:58:49;;;;;;;16.38;12.15;;;28.80;80.90;;;;;;4804091;29;20259;-79
2023/09/12 16:01:20;;;;;;;15.43;12.52;;;28.70;81.20;;;;;;4805170;29;20211;-78
2023/09/12 16:03:47;;;;;;;16.25;12.15;;;28.70;81.70;;;;;;4820948;29;20251;-80
2023/09/12 16:06:17;;;;;;;17.20;13.00;;;28.60;81.70;;;;;;4820302;29;20231;-78
2023/09/12 16:08:45;;;;;;;17.25;12.25;;;28.50;82.50;;;;;;4820515;29;20222;-80
2023/09/12 16:11:15;;;;;;;15.43;12.25;;;28.50;83.00;;;;;;4805304;29;20213;-77
2023/09/12 19:50:44;;;;;;;24.13;18.23;;;22.50;99.90;;;;;;5362463;23;20358;-79
2023/09/12 19:53:25;;;;;;;26.50;17.70;;;22.40;99.90;;;;;;4877870;29;20221;-77
2023/09/12 19:55:57;;;;;;;26.17;18.43;;;22.30;99.90;;;;;;4878369;29;20193;-77
2023/09/12 19:58:36;;;;;;;26.93;17.67;;;22.20;99.90;;;;;;4878947;29;20211;-80
2023/09/12 20:01:07;;;;;;;25.20;18.13;;;22.00;99.90;;;;;;4878329;29;20221;-80
2023/09/12 20:03:35;;;;;;;24.13;16.67;;;22.00;99.90;;;;;;4877454;29;20205;-80
2023/09/12 20:06:06;;;;;;;28.17;17.57;;;21.90;99.90;;;;;;4861991;29;20213;-80
2023/09/12 20:08:50;;;;;;;24.67;17.17;;;21.90;99.90;;;;;;4863722;29;20212;-80
2023/09/12 20:11:22;;;;;;;25.97;17.00;;;21.80;99.90;;;;;;4878368;29;20567;-79
2023/09/12 20:14:12;;;;;;;23.73;17.67;;;21.80;99.90;;;;;;4878512;29;20236;-86
2023/09/12 20:20:26;;;;;;;25.00;17.87;;;21.70;99.90;;;;;;4860799;29;20288;-83
2023/09/12 20:23:37;;;;;;;25.00;17.67;;;21.60;99.90;;;;;;4801864;29;20231;-83
2023/09/12 20:48:04;;;;;;;25.63;18.43;;;21.00;99.90;;;;;;4640796;27;20236;-83
2023/09/12 20:50:54;;;;;;;24.80;17.67;;;21.00;99.90;;;;;;4803520;29;20664;-84
2023/09/12 20:53:45;;;;;;;25.53;18.07;;;21.00;99.90;;;;;;4798350;29;20239;-82
2023/09/12 20:57:03;;;;;;;26.40;18.23;;;20.90;99.90;;;;;;4773304;29;20617;-83
2023/09/12 20:59:49;;;;;;;27.63;18.77;;;20.70;99.90;;;;;;4711635;30;20764;-83
2023/09/12 21:07:02;;;;;;;27.37;18.57;;;20.80;99.90;;;;;;4720212;30;20776;-84
2023/09/12 21:12:49;;;;;;;30.03;18.70;;;20.70;99.90;;;;;;5197797;23;20245;-84
2023/09/12 21:24:23;;;;;;;;;;;;;;;;;;;;;
2023/09/12 21:34:24;;;;;;;28.93;19.67;;;20.30;99.90;;;;;;5094764;23;20263;-83
2023/09/12 21:41:55;;;;;;;28.43;19.33;;;20.20;99.90;;;;;;4753709;30;20669;-83
2023/09/12 21:45:14;;;;;;;29.90;19.33;;;20.20;99.90;;;;;;4766622;30;20212;-82
2023/09/12 21:52:50;;;;;;;26.47;19.57;;;20.00;99.90;;;;;;4698548;30;20352;-83
2023/09/12 21:57:29;;;;;;;;;;;;;;;;;;;;;
2023/09/12 22:01:48;;;;;;;;;;;;;;;;;;;;;
2023/09/12 23:19:34;;;;;;;;;;;;;;;;;;;;;
2023/09/12 23:23:06;;;;;;;;;;;;;;;;;;;;;
2023/09/12 23:26:24;;;;;;;36.70;23.10;;;18.90;99.90;;;;;;5869991;24;20187;-83
2023/09/12 23:29:54;;;;;;;37.00;25.33;;;19.00;99.90;;;;;;5937186;24;20512;-83
2023/09/12 23:33:29;;;;;;;;;;;;;;;;;;;;;
2023/09/12 23:37:32;;;;;;;;;;;;;;;;;;;;;
2023/09/12 23:44:59;;;;;;;34.60;23.73;;;18.90;99.90;;;;;;5954628;24;20203;-83
